Terminal Aerodrome Forecast
Issued by NWS Wilmington, OH

Current Version | Previous Version | Graphics & Text | Print | Product List | Glossary On
Versions: 1 2 3 4 5 6 7 8 9 10 11 12 13 14 15 16 17
787
FTUS41 KILN 071731
TAFCMH
TAF
KCMH 071731Z 0718/0818 24008KT P6SM BKN150
     FM080100 28008KT P6SM BKN110
     FM081400 27012KT P6SM SCT120=

USA.gov is the U.S. government's official web portal to all federal, state and local government web resources and services.